sensor_id;sensor_type;location;lat;lon;timestamp;temperature;humidity
435;DHT22;204;48.942;9.256;2024-02-14T00:00:19;3.70;1.00
435;DHT22;204;48.942;9.256;2024-02-14T00:02:46;3.70;1.00
435;DHT22;204;48.942;9.256;2024-02-14T00:05:15;3.60;1.00
435;DHT22;204;48.942;9.256;2024-02-14T00:07:41;3.60;1.00
435;DHT22;204;48.942;9.256;2024-02-14T00:10:07;3.70;1.00
435;DHT22;204;48.942;9.256;2024-02-14T00:12:34;3.70;1.00
435;DHT22;204;48.942;9.256;2024-02-14T00:15:01;3.80;1.00
435;DHT22;204;48.942;9.256;2024-02-14T00:17:28;3.90;1.00
435;DHT22;204;48.942;9.256;2024-02-14T00:19:54;4.00;1.00
435;DHT22;204;48.942;9.256;2024-02-14T00:22:19;4.10;1.00
435;DHT22;204;48.942;9.256;2024-02-14T00:24:45;4.10;1.00
435;DHT22;204;48.942;9.256;2024-02-14T00:27:10;4.10;1.00
435;DHT22;204;48.942;9.256;2024-02-14T00:29:36;4.00;1.00
435;DHT22;204;48.942;9.256;2024-02-14T00:32:03;4.00;1.00
435;DHT22;204;48.942;9.256;2024-02-14T00:34:28;3.80;1.00
435;DHT22;204;48.942;9.256;2024-02-14T00:36:54;3.80;1.00
435;DHT22;204;48.942;9.256;2024-02-14T00:39:20;3.80;1.00
435;DHT22;204;48.942;9.256;2024-02-14T00:41:46;3.90;1.00
435;DHT22;204;48.942;9.256;2024-02-14T00:44:13;3.90;1.00
435;DHT22;204;48.942;9.256;2024-02-14T00:46:40;3.90;1.00
435;DHT22;204;48.942;9.256;2024-02-14T00:49:06;4.00;1.00
435;DHT22;204;48.942;9.256;2024-02-14T00:51:31;4.00;1.00
435;DHT22;204;48.942;9.256;2024-02-14T00:53:57;4.10;1.00
435;DHT22;204;48.942;9.256;2024-02-14T00:56:23;4.20;1.00
435;DHT22;204;48.942;9.256;2024-02-14T00:58:49;4.30;1.00
435;DHT22;204;48.942;9.256;2024-02-14T01:01:14;4.30;1.00
435;DHT22;204;48.942;9.256;2024-02-14T01:03:40;4.40;1.00
435;DHT22;204;48.942;9.256;2024-02-14T01:06:06;4.50;1.00
435;DHT22;204;48.942;9.256;2024-02-14T01:08:31;4.60;1.00
435;DHT22;204;48.942;9.256;2024-02-14T01:10:59;4.60;1.00
435;DHT22;204;48.942;9.256;2024-02-14T01:13:24;4.70;1.00
435;DHT22;204;48.942;9.256;2024-02-14T01:15:50;4.70;1.00
435;DHT22;204;48.942;9.256;2024-02-14T01:18:15;4.80;1.00
435;DHT22;204;48.942;9.256;2024-02-14T01:20:41;4.90;1.00
435;DHT22;204;48.942;9.256;2024-02-14T01:23:06;4.90;1.00
435;DHT22;204;48.942;9.256;2024-02-14T01:25:32;5.00;1.00
435;DHT22;204;48.942;9.256;2024-02-14T01:27:59;5.10;1.00
435;DHT22;204;48.942;9.256;2024-02-14T01:30:25;5.20;1.00
435;DHT22;204;48.942;9.256;2024-02-14T01:32:50;5.30;1.00
435;DHT22;204;48.942;9.256;2024-02-14T01:35:18;5.40;1.00
435;DHT22;204;48.942;9.256;2024-02-14T01:37:44;5.40;1.00
435;DHT22;204;48.942;9.256;2024-02-14T01:40:11;5.40;1.00
435;DHT22;204;48.942;9.256;2024-02-14T01:42:36;5.40;1.00
435;DHT22;204;48.942;9.256;2024-02-14T01:45:02;5.40;1.00
435;DHT22;204;48.942;9.256;2024-02-14T01:47:28;5.40;1.00
435;DHT22;204;48.942;9.256;2024-02-14T01:49:54;5.30;1.00
435;DHT22;204;48.942;9.256;2024-02-14T01:52:20;5.30;1.00
435;DHT22;204;48.942;9.256;2024-02-14T01:54:47;5.20;1.00
435;DHT22;204;48.942;9.256;2024-02-14T01:57:12;5.30;1.00
435;DHT22;204;48.942;9.256;2024-02-14T01:59:39;5.30;1.00
435;DHT22;204;48.942;9.256;2024-02-14T02:02:04;5.20;1.00
435;DHT22;204;48.942;9.256;2024-02-14T02:04:36;5.20;1.00
435;DHT22;204;48.942;9.256;2024-02-14T02:07:01;5.20;1.00
435;DHT22;204;48.942;9.256;2024-02-14T02:09:36;5.30;1.00
435;DHT22;204;48.942;9.256;2024-02-14T02:12:07;5.20;1.00
435;DHT22;204;48.942;9.256;2024-02-14T02:14:33;5.30;1.00
435;DHT22;204;48.942;9.256;2024-02-14T02:16:59;5.40;1.00
435;DHT22;204;48.942;9.256;2024-02-14T02:19:24;5.40;1.00
435;DHT22;204;48.942;9.256;2024-02-14T02:21:50;5.40;1.00
435;DHT22;204;48.942;9.256;2024-02-14T02:24:15;5.40;1.00
435;DHT22;204;48.942;9.256;2024-02-14T02:26:41;5.40;1.00
435;DHT22;204;48.942;9.256;2024-02-14T02:29:06;5.50;1.00
435;DHT22;204;48.942;9.256;2024-02-14T02:31:32;5.50;1.00
435;DHT22;204;48.942;9.256;2024-02-14T02:33:58;5.50;1.00
435;DHT22;204;48.942;9.256;2024-02-14T02:36:24;5.50;1.00
435;DHT22;204;48.942;9.256;2024-02-14T02:38:50;5.50;1.00
435;DHT22;204;48.942;9.256;2024-02-14T02:41:16;5.50;1.00
435;DHT22;204;48.942;9.256;2024-02-14T02:43:42;5.50;1.00
435;DHT22;204;48.942;9.256;2024-02-14T02:46:09;5.60;1.00
435;DHT22;204;48.942;9.256;2024-02-14T02:48:34;5.60;1.00
435;DHT22;204;48.942;9.256;2024-02-14T02:51:01;5.60;1.00
435;DHT22;204;48.942;9.256;2024-02-14T02:53:27;5.60;1.00
435;DHT22;204;48.942;9.256;2024-02-14T02:55:53;5.60;1.00
435;DHT22;204;48.942;9.256;2024-02-14T02:58:19;5.60;1.00
435;DHT22;204;48.942;9.256;2024-02-14T03:00:46;5.60;1.00
435;DHT22;204;48.942;9.256;2024-02-14T03:03:14;5.60;1.00
435;DHT22;204;48.942;9.256;2024-02-14T03:05:43;5.60;1.00
435;DHT22;204;48.942;9.256;2024-02-14T03:08:11;5.70;1.00
435;DHT22;204;48.942;9.256;2024-02-14T03:10:41;5.80;1.00
435;DHT22;204;48.942;9.256;2024-02-14T03:13:06;5.90;1.00
435;DHT22;204;48.942;9.256;2024-02-14T03:15:37;5.90;1.00
435;DHT22;204;48.942;9.256;2024-02-14T03:18:03;6.00;1.00
435;DHT22;204;48.942;9.256;2024-02-14T03:20:35;6.00;1.00
435;DHT22;204;48.942;9.256;2024-02-14T03:23:01;6.10;1.00
435;DHT22;204;48.942;9.256;2024-02-14T03:25:29;6.10;1.00
435;DHT22;204;48.942;9.256;2024-02-14T03:27:55;6.00;1.00
435;DHT22;204;48.942;9.256;2024-02-14T03:30:24;6.00;1.00
435;DHT22;204;48.942;9.256;2024-02-14T03:32:50;6.00;1.00
435;DHT22;204;48.942;9.256;2024-02-14T03:35:16;5.90;1.00
435;DHT22;204;48.942;9.256;2024-02-14T03:37:42;5.90;1.00
435;DHT22;204;48.942;9.256;2024-02-14T03:40:09;5.80;1.00
435;DHT22;204;48.942;9.256;2024-02-14T03:42:35;5.80;1.00
435;DHT22;204;48.942;9.256;2024-02-14T03:45:01;5.70;1.00
435;DHT22;204;48.942;9.256;2024-02-14T03:47:34;5.70;1.00
435;DHT22;204;48.942;9.256;2024-02-14T03:49:59;5.70;1.00
435;DHT22;204;48.942;9.256;2024-02-14T03:52:25;5.60;1.00
435;DHT22;204;48.942;9.256;2024-02-14T03:54:51;5.60;1.00
435;DHT22;204;48.942;9.256;2024-02-14T03:57:17;5.70;1.00
435;DHT22;204;48.942;9.256;2024-02-14T03:59:44;5.80;1.00
435;DHT22;204;48.942;9.256;2024-02-14T04:02:10;5.80;1.00
435;DHT22;204;48.942;9.256;2024-02-14T04:04:38;5.90;1.00
435;DHT22;204;48.942;9.256;2024-02-14T04:07:06;6.00;1.00
435;DHT22;204;48.942;9.256;2024-02-14T04:09:34;6.00;1.00
435;DHT22;204;48.942;9.256;2024-02-14T04:11:59;6.10;1.00
435;DHT22;204;48.942;9.256;2024-02-14T04:14:25;6.20;1.00
435;DHT22;204;48.942;9.256;2024-02-14T04:16:51;6.30;1.00
435;DHT22;204;48.942;9.256;2024-02-14T04:19:16;6.30;1.00
435;DHT22;204;48.942;9.256;2024-02-14T04:21:43;6.40;1.00
435;DHT22;204;48.942;9.256;2024-02-14T04:24:09;6.50;1.00
435;DHT22;204;48.942;9.256;2024-02-14T04:26:37;6.50;1.00
435;DHT22;204;48.942;9.256;2024-02-14T04:29:03;6.60;1.00
435;DHT22;204;48.942;9.256;2024-02-14T04:31:29;6.60;1.00
435;DHT22;204;48.942;9.256;2024-02-14T04:33:55;6.70;1.00
435;DHT22;204;48.942;9.256;2024-02-14T04:36:21;6.80;1.00
435;DHT22;204;48.942;9.256;2024-02-14T04:38:48;6.90;1.00
435;DHT22;204;48.942;9.256;2024-02-14T04:41:14;6.90;1.00
435;DHT22;204;48.942;9.256;2024-02-14T04:43:40;7.00;1.00
435;DHT22;204;48.942;9.256;2024-02-14T04:46:06;7.00;1.00
435;DHT22;204;48.942;9.256;2024-02-14T04:48:36;7.10;1.00
435;DHT22;204;48.942;9.256;2024-02-14T04:51:02;7.10;1.00
435;DHT22;204;48.942;9.256;2024-02-14T04:53:28;7.20;1.00
435;DHT22;204;48.942;9.256;2024-02-14T04:55:54;7.20;1.00
435;DHT22;204;48.942;9.256;2024-02-14T04:58:20;7.30;1.00
435;DHT22;204;48.942;9.256;2024-02-14T05:00:45;7.40;1.00
435;DHT22;204;48.942;9.256;2024-02-14T05:03:11;7.40;1.00
435;DHT22;204;48.942;9.256;2024-02-14T05:05:37;7.40;1.00
435;DHT22;204;48.942;9.256;2024-02-14T05:08:03;7.50;1.00
435;DHT22;204;48.942;9.256;2024-02-14T05:10:29;7.60;1.00
435;DHT22;204;48.942;9.256;2024-02-14T05:12:54;7.60;1.00
435;DHT22;204;48.942;9.256;2024-02-14T05:15:20;7.60;1.00
435;DHT22;204;48.942;9.256;2024-02-14T05:17:46;7.70;1.00
435;DHT22;204;48.942;9.256;2024-02-14T05:20:12;7.70;1.00
435;DHT22;204;48.942;9.256;2024-02-14T05:22:38;7.70;1.00
435;DHT22;204;48.942;9.256;2024-02-14T05:25:04;7.80;1.00
435;DHT22;204;48.942;9.256;2024-02-14T05:27:30;7.80;1.00
435;DHT22;204;48.942;9.256;2024-02-14T05:29:56;7.80;1.00
435;DHT22;204;48.942;9.256;2024-02-14T05:32:23;7.70;1.00
435;DHT22;204;48.942;9.256;2024-02-14T05:34:50;7.80;1.00
435;DHT22;204;48.942;9.256;2024-02-14T05:37:15;7.80;1.00
435;DHT22;204;48.942;9.256;2024-02-14T05:39:41;7.80;1.00
435;DHT22;204;48.942;9.256;2024-02-14T05:42:06;7.90;1.00
435;DHT22;204;48.942;9.256;2024-02-14T05:44:32;7.90;1.00
435;DHT22;204;48.942;9.256;2024-02-14T05:46:58;7.90;1.00
435;DHT22;204;48.942;9.256;2024-02-14T05:49:26;7.90;1.00
435;DHT22;204;48.942;9.256;2024-02-14T05:51:52;7.90;1.00
435;DHT22;204;48.942;9.256;2024-02-14T05:54:19;8.00;1.00
435;DHT22;204;48.942;9.256;2024-02-14T05:56:45;8.00;99.90
435;DHT22;204;48.942;9.256;2024-02-14T05:59:11;7.90;99.90
435;DHT22;204;48.942;9.256;2024-02-14T06:01:36;8.00;99.90
435;DHT22;204;48.942;9.256;2024-02-14T06:04:02;8.00;99.90
435;DHT22;204;48.942;9.256;2024-02-14T06:06:28;8.00;99.90
435;DHT22;204;48.942;9.256;2024-02-14T06:08:53;8.00;99.90
435;DHT22;204;48.942;9.256;2024-02-14T06:11:20;8.00;99.90
435;DHT22;204;48.942;9.256;2024-02-14T06:13:47;8.10;99.90
435;DHT22;204;48.942;9.256;2024-02-14T06:16:13;8.00;99.90
435;DHT22;204;48.942;9.256;2024-02-14T06:18:39;8.00;99.90
435;DHT22;204;48.942;9.256;2024-02-14T06:21:07;8.00;99.90
435;DHT22;204;48.942;9.256;2024-02-14T06:23:33;8.00;99.90
435;DHT22;204;48.942;9.256;2024-02-14T06:25:59;8.00;99.90
435;DHT22;204;48.942;9.256;2024-02-14T06:28:24;8.00;99.90
435;DHT22;204;48.942;9.256;2024-02-14T06:30:50;8.00;99.90
435;DHT22;204;48.942;9.256;2024-02-14T06:33:16;8.00;99.90
435;DHT22;204;48.942;9.256;2024-02-14T06:35:41;7.90;99.90
435;DHT22;204;48.942;9.256;2024-02-14T06:38:07;7.90;99.90
435;DHT22;204;48.942;9.256;2024-02-14T06:40:33;7.90;99.90
435;DHT22;204;48.942;9.256;2024-02-14T06:42:59;7.90;99.90
435;DHT22;204;48.942;9.256;2024-02-14T06:45:27;8.00;99.90
435;DHT22;204;48.942;9.256;2024-02-14T06:47:53;8.00;99.90
435;DHT22;204;48.942;9.256;2024-02-14T06:50:19;8.00;99.90
435;DHT22;204;48.942;9.256;2024-02-14T06:52:45;8.10;99.90
435;DHT22;204;48.942;9.256;2024-02-14T06:55:11;8.10;99.90
435;DHT22;204;48.942;9.256;2024-02-14T06:57:37;8.20;99.90
435;DHT22;204;48.942;9.256;2024-02-14T07:00:03;8.20;99.90
435;DHT22;204;48.942;9.256;2024-02-14T07:02:31;8.20;99.90
435;DHT22;204;48.942;9.256;2024-02-14T07:04:57;8.20;99.90
435;DHT22;204;48.942;9.256;2024-02-14T07:07:22;8.30;99.90
435;DHT22;204;48.942;9.256;2024-02-14T07:09:48;8.20;99.90
435;DHT22;204;48.942;9.256;2024-02-14T07:12:14;8.30;99.90
435;DHT22;204;48.942;9.256;2024-02-14T07:14:39;8.40;99.90
435;DHT22;204;48.942;9.256;2024-02-14T07:17:05;8.40;99.90
435;DHT22;204;48.942;9.256;2024-02-14T07:19:30;8.50;99.90
435;DHT22;204;48.942;9.256;2024-02-14T07:21:56;8.50;99.90
435;DHT22;204;48.942;9.256;2024-02-14T07:24:21;8.60;99.90
435;DHT22;204;48.942;9.256;2024-02-14T07:26:47;8.60;99.90
435;DHT22;204;48.942;9.256;2024-02-14T07:29:13;8.70;99.90
435;DHT22;204;48.942;9.256;2024-02-14T07:31:38;8.80;99.90
435;DHT22;204;48.942;9.256;2024-02-14T07:34:04;8.90;99.90
435;DHT22;204;48.942;9.256;2024-02-14T07:36:31;9.00;99.90
435;DHT22;204;48.942;9.256;2024-02-14T07:38:56;9.10;99.90
435;DHT22;204;48.942;9.256;2024-02-14T07:41:22;9.20;99.90
435;DHT22;204;48.942;9.256;2024-02-14T07:43:47;9.40;99.90
435;DHT22;204;48.942;9.256;2024-02-14T07:46:19;9.50;99.90
435;DHT22;204;48.942;9.256;2024-02-14T07:48:45;9.70;99.90
435;DHT22;204;48.942;9.256;2024-02-14T07:51:11;10.00;99.90
435;DHT22;204;48.942;9.256;2024-02-14T07:53:37;10.20;99.90
435;DHT22;204;48.942;9.256;2024-02-14T07:56:03;10.50;99.90
435;DHT22;204;48.942;9.256;2024-02-14T07:58:28;10.60;99.90
435;DHT22;204;48.942;9.256;2024-02-14T08:00:54;10.80;99.90
435;DHT22;204;48.942;9.256;2024-02-14T08:03:20;10.90;99.90
435;DHT22;204;48.942;9.256;2024-02-14T08:05:45;11.00;99.90
435;DHT22;204;48.942;9.256;2024-02-14T08:08:11;11.00;99.90
435;DHT22;204;48.942;9.256;2024-02-14T08:10:37;11.10;99.90
435;DHT22;204;48.942;9.256;2024-02-14T08:13:02;11.20;99.90
435;DHT22;204;48.942;9.256;2024-02-14T08:15:29;11.20;99.90
435;DHT22;204;48.942;9.256;2024-02-14T08:17:55;11.30;99.90
435;DHT22;204;48.942;9.256;2024-02-14T08:20:22;11.40;99.90
435;DHT22;204;48.942;9.256;2024-02-14T08:22:48;11.40;99.90
435;DHT22;204;48.942;9.256;2024-02-14T08:25:14;11.50;99.90
435;DHT22;204;48.942;9.256;2024-02-14T08:27:40;11.50;99.90
435;DHT22;204;48.942;9.256;2024-02-14T08:30:06;11.60;99.90
435;DHT22;204;48.942;9.256;2024-02-14T08:32:33;11.60;99.90
435;DHT22;204;48.942;9.256;2024-02-14T08:34:59;11.60;99.90
435;DHT22;204;48.942;9.256;2024-02-14T08:37:24;11.70;99.90
435;DHT22;204;48.942;9.256;2024-02-14T08:39:50;11.80;99.90
435;DHT22;204;48.942;9.256;2024-02-14T08:42:16;12.10;99.90
435;DHT22;204;48.942;9.256;2024-02-14T08:44:41;12.30;99.90
435;DHT22;204;48.942;9.256;2024-02-14T08:47:07;12.40;99.90
435;DHT22;204;48.942;9.256;2024-02-14T08:49:34;12.60;99.90
435;DHT22;204;48.942;9.256;2024-02-14T08:52:00;12.70;99.90
435;DHT22;204;48.942;9.256;2024-02-14T08:54:26;12.80;99.90
435;DHT22;204;48.942;9.256;2024-02-14T08:56:54;12.90;99.90
435;DHT22;204;48.942;9.256;2024-02-14T08:59:21;13.00;99.90
435;DHT22;204;48.942;9.256;2024-02-14T09:01:47;13.10;99.90
435;DHT22;204;48.942;9.256;2024-02-14T09:04:13;13.30;99.90
435;DHT22;204;48.942;9.256;2024-02-14T09:06:40;13.40;99.90
435;DHT22;204;48.942;9.256;2024-02-14T09:09:07;13.60;99.90
435;DHT22;204;48.942;9.256;2024-02-14T09:11:35;13.60;99.90
435;DHT22;204;48.942;9.256;2024-02-14T09:14:01;13.70;99.90
435;DHT22;204;48.942;9.256;2024-02-14T09:16:34;13.70;99.90
435;DHT22;204;48.942;9.256;2024-02-14T09:19:00;13.70;99.90
435;DHT22;204;48.942;9.256;2024-02-14T09:21:30;13.70;99.90
435;DHT22;204;48.942;9.256;2024-02-14T09:23:56;13.70;99.90
435;DHT22;204;48.942;9.256;2024-02-14T09:26:23;13.70;99.90
435;DHT22;204;48.942;9.256;2024-02-14T09:28:48;13.70;99.90
435;DHT22;204;48.942;9.256;2024-02-14T09:31:20;13.60;99.90
435;DHT22;204;48.942;9.256;2024-02-14T09:33:48;13.70;99.90
435;DHT22;204;48.942;9.256;2024-02-14T09:36:14;13.70;99.90
435;DHT22;204;48.942;9.256;2024-02-14T09:38:41;13.80;99.90
435;DHT22;204;48.942;9.256;2024-02-14T09:43:49;13.90;99.90
435;DHT22;204;48.942;9.256;2024-02-14T09:46:15;13.90;99.90
435;DHT22;204;48.942;9.256;2024-02-14T09:48:44;13.90;99.90
435;DHT22;204;48.942;9.256;2024-02-14T09:51:11;13.90;99.90
435;DHT22;204;48.942;9.256;2024-02-14T09:53:38;14.00;99.90
435;DHT22;204;48.942;9.256;2024-02-14T09:56:05;14.00;99.90
435;DHT22;204;48.942;9.256;2024-02-14T09:58:34;14.20;99.90
435;DHT22;204;48.942;9.256;2024-02-14T10:01:00;14.20;99.90
435;DHT22;204;48.942;9.256;2024-02-14T10:03:26;14.30;99.90
435;DHT22;204;48.942;9.256;2024-02-14T10:05:52;14.40;99.90
435;DHT22;204;48.942;9.256;2024-02-14T10:08:18;14.60;99.90
435;DHT22;204;48.942;9.256;2024-02-14T10:10:46;14.60;99.90
435;DHT22;204;48.942;9.256;2024-02-14T10:13:12;14.80;99.90
435;DHT22;204;48.942;9.256;2024-02-14T10:15:37;14.80;99.90
435;DHT22;204;48.942;9.256;2024-02-14T10:18:03;14.90;99.90
435;DHT22;204;48.942;9.256;2024-02-14T10:20:29;15.00;99.90
435;DHT22;204;48.942;9.256;2024-02-14T10:23:03;15.20;99.90
435;DHT22;204;48.942;9.256;2024-02-14T10:25:29;15.30;99.90
435;DHT22;204;48.942;9.256;2024-02-14T10:27:56;15.50;99.90
435;DHT22;204;48.942;9.256;2024-02-14T10:30:22;15.60;99.90
435;DHT22;204;48.942;9.256;2024-02-14T10:32:48;15.70;99.90
435;DHT22;204;48.942;9.256;2024-02-14T10:35:14;15.80;99.90
435;DHT22;204;48.942;9.256;2024-02-14T10:37:41;15.80;99.90
435;DHT22;204;48.942;9.256;2024-02-14T10:40:08;15.90;99.90
435;DHT22;204;48.942;9.256;2024-02-14T10:42:34;15.90;99.90
435;DHT22;204;48.942;9.256;2024-02-14T10:45:01;16.00;99.90
435;DHT22;204;48.942;9.256;2024-02-14T10:47:31;16.10;99.90
435;DHT22;204;48.942;9.256;2024-02-14T10:50:02;16.10;99.90
435;DHT22;204;48.942;9.256;2024-02-14T10:52:32;16.20;99.90
435;DHT22;204;48.942;9.256;2024-02-14T10:55:05;16.30;99.90
435;DHT22;204;48.942;9.256;2024-02-14T10:57:31;16.30;99.90
435;DHT22;204;48.942;9.256;2024-02-14T11:00:00;16.30;99.90
435;DHT22;204;48.942;9.256;2024-02-14T11:02:26;16.10;99.90
435;DHT22;204;48.942;9.256;2024-02-14T11:04:56;16.10;99.90
435;DHT22;204;48.942;9.256;2024-02-14T11:07:22;16.10;99.90
435;DHT22;204;48.942;9.256;2024-02-14T11:09:48;16.10;99.90
435;DHT22;204;48.942;9.256;2024-02-14T11:12:25;16.00;99.90
435;DHT22;204;48.942;9.256;2024-02-14T11:14:51;16.10;99.90
435;DHT22;204;48.942;9.256;2024-02-14T11:17:24;16.10;99.90
435;DHT22;204;48.942;9.256;2024-02-14T11:19:52;16.10;99.90
435;DHT22;204;48.942;9.256;2024-02-14T11:22:19;16.10;99.90
435;DHT22;204;48.942;9.256;2024-02-14T11:24:48;16.20;99.90
435;DHT22;204;48.942;9.256;2024-02-14T11:27:14;16.20;99.90
435;DHT22;204;48.942;9.256;2024-02-14T11:29:53;16.10;99.90
435;DHT22;204;48.942;9.256;2024-02-14T11:32:18;16.10;99.90
435;DHT22;204;48.942;9.256;2024-02-14T11:34:56;16.00;99.90
435;DHT22;204;48.942;9.256;2024-02-14T11:37:30;15.90;99.90
435;DHT22;204;48.942;9.256;2024-02-14T11:40:00;15.70;99.90
435;DHT22;204;48.942;9.256;2024-02-14T11:42:26;15.50;99.90
435;DHT22;204;48.942;9.256;2024-02-14T11:44:52;15.50;99.90
435;DHT22;204;48.942;9.256;2024-02-14T11:47:19;15.40;99.90
435;DHT22;204;48.942;9.256;2024-02-14T11:49:45;15.30;99.90
435;DHT22;204;48.942;9.256;2024-02-14T11:52:12;15.20;99.90
435;DHT22;204;48.942;9.256;2024-02-14T11:54:39;15.20;99.90
435;DHT22;204;48.942;9.256;2024-02-14T11:57:05;15.20;99.90
435;DHT22;204;48.942;9.256;2024-02-14T11:59:32;15.30;99.90
435;DHT22;204;48.942;9.256;2024-02-14T12:01:57;15.30;99.90
435;DHT22;204;48.942;9.256;2024-02-14T12:04:24;15.20;99.90
435;DHT22;204;48.942;9.256;2024-02-14T12:06:50;15.10;99.90
435;DHT22;204;48.942;9.256;2024-02-14T12:09:15;15.00;99.90
435;DHT22;204;48.942;9.256;2024-02-14T12:11:41;14.90;99.90
435;DHT22;204;48.942;9.256;2024-02-14T12:14:11;15.00;99.90
435;DHT22;204;48.942;9.256;2024-02-14T12:16:40;15.10;99.90
435;DHT22;204;48.942;9.256;2024-02-14T12:19:13;15.30;99.90
435;DHT22;204;48.942;9.256;2024-02-14T12:21:42;15.50;99.90
435;DHT22;204;48.942;9.256;2024-02-14T12:24:11;15.60;99.90
435;DHT22;204;48.942;9.256;2024-02-14T12:26:39;15.60;99.90
435;DHT22;204;48.942;9.256;2024-02-14T12:29:06;15.60;99.90
435;DHT22;204;48.942;9.256;2024-02-14T12:31:36;15.70;99.90
435;DHT22;204;48.942;9.256;2024-02-14T12:34:03;15.80;99.90
435;DHT22;204;48.942;9.256;2024-02-14T12:36:33;15.90;99.90
435;DHT22;204;48.942;9.256;2024-02-14T12:39:00;16.10;99.90
435;DHT22;204;48.942;9.256;2024-02-14T12:41:28;16.20;99.90
435;DHT22;204;48.942;9.256;2024-02-14T12:43:55;16.30;99.90
435;DHT22;204;48.942;9.256;2024-02-14T12:46:21;16.40;99.90
435;DHT22;204;48.942;9.256;2024-02-14T12:48:46;16.50;99.90
435;DHT22;204;48.942;9.256;2024-02-14T12:51:13;16.60;99.90
435;DHT22;204;48.942;9.256;2024-02-14T12:53:39;16.80;99.90
435;DHT22;204;48.942;9.256;2024-02-14T12:56:05;17.00;99.90
435;DHT22;204;48.942;9.256;2024-02-14T12:58:32;17.20;99.90
435;DHT22;204;48.942;9.256;2024-02-14T13:00:58;17.20;99.90
435;DHT22;204;48.942;9.256;2024-02-14T13:03:27;17.30;99.90
435;DHT22;204;48.942;9.256;2024-02-14T13:05:54;17.40;99.90
435;DHT22;204;48.942;9.256;2024-02-14T13:08:20;17.50;99.90
435;DHT22;204;48.942;9.256;2024-02-14T13:10:46;17.60;99.90
435;DHT22;204;48.942;9.256;2024-02-14T13:13:12;17.70;99.90
435;DHT22;204;48.942;9.256;2024-02-14T13:15:38;17.80;99.90
435;DHT22;204;48.942;9.256;2024-02-14T13:18:03;17.80;99.90
435;DHT22;204;48.942;9.256;2024-02-14T13:20:29;17.90;99.90
435;DHT22;204;48.942;9.256;2024-02-14T13:22:55;18.00;99.90
435;DHT22;204;48.942;9.256;2024-02-14T13:25:21;18.20;99.90
435;DHT22;204;48.942;9.256;2024-02-14T13:27:47;18.30;99.90
435;DHT22;204;48.942;9.256;2024-02-14T13:30:12;18.40;99.90
435;DHT22;204;48.942;9.256;2024-02-14T13:32:38;18.40;99.90
435;DHT22;204;48.942;9.256;2024-02-14T13:35:04;18.20;99.90
435;DHT22;204;48.942;9.256;2024-02-14T13:37:31;18.00;99.90
435;DHT22;204;48.942;9.256;2024-02-14T13:39:57;17.90;99.90
435;DHT22;204;48.942;9.256;2024-02-14T13:42:23;17.80;99.90
435;DHT22;204;48.942;9.256;2024-02-14T13:44:49;17.90;99.90
435;DHT22;204;48.942;9.256;2024-02-14T13:47:18;17.90;99.90
435;DHT22;204;48.942;9.256;2024-02-14T13:49:44;17.90;99.90
435;DHT22;204;48.942;9.256;2024-02-14T13:52:09;17.90;99.90
435;DHT22;204;48.942;9.256;2024-02-14T13:54:35;17.90;99.90
435;DHT22;204;48.942;9.256;2024-02-14T13:57:01;17.90;99.90
435;DHT22;204;48.942;9.256;2024-02-14T13:59:28;17.80;99.90
435;DHT22;204;48.942;9.256;2024-02-14T14:01:54;17.60;99.90
435;DHT22;204;48.942;9.256;2024-02-14T14:04:20;17.40;99.90
435;DHT22;204;48.942;9.256;2024-02-14T14:06:46;17.30;99.90
435;DHT22;204;48.942;9.256;2024-02-14T14:09:13;17.10;99.90
435;DHT22;204;48.942;9.256;2024-02-14T14:11:38;16.90;99.90
435;DHT22;204;48.942;9.256;2024-02-14T14:14:04;16.80;99.90
435;DHT22;204;48.942;9.256;2024-02-14T14:16:31;16.70;99.90
435;DHT22;204;48.942;9.256;2024-02-14T14:18:58;16.60;99.90
435;DHT22;204;48.942;9.256;2024-02-14T14:21:24;16.50;99.90
435;DHT22;204;48.942;9.256;2024-02-14T14:23:50;16.40;99.90
435;DHT22;204;48.942;9.256;2024-02-14T14:26:15;16.30;99.90
435;DHT22;204;48.942;9.256;2024-02-14T14:28:41;16.20;99.90
435;DHT22;204;48.942;9.256;2024-02-14T14:31:08;16.20;99.90
435;DHT22;204;48.942;9.256;2024-02-14T14:33:36;16.20;99.90
435;DHT22;204;48.942;9.256;2024-02-14T14:36:02;16.30;99.90
435;DHT22;204;48.942;9.256;2024-02-14T14:38:28;16.30;99.90
435;DHT22;204;48.942;9.256;2024-02-14T14:40:55;16.30;99.90
435;DHT22;204;48.942;9.256;2024-02-14T14:43:21;16.40;99.90
435;DHT22;204;48.942;9.256;2024-02-14T14:45:47;16.40;99.90
435;DHT22;204;48.942;9.256;2024-02-14T14:48:12;16.40;99.90
435;DHT22;204;48.942;9.256;2024-02-14T14:50:38;16.40;99.90
435;DHT22;204;48.942;9.256;2024-02-14T14:53:04;16.50;99.90
435;DHT22;204;48.942;9.256;2024-02-14T14:58:16;16.60;99.90
435;DHT22;204;48.942;9.256;2024-02-14T15:00:43;16.60;99.90
435;DHT22;204;48.942;9.256;2024-02-14T15:03:09;16.50;99.90
435;DHT22;204;48.942;9.256;2024-02-14T15:05:37;16.50;99.90
435;DHT22;204;48.942;9.256;2024-02-14T15:08:07;16.40;99.90
435;DHT22;204;48.942;9.256;2024-02-14T15:10:34;16.40;99.90
435;DHT22;204;48.942;9.256;2024-02-14T15:13:00;16.50;99.90
435;DHT22;204;48.942;9.256;2024-02-14T15:15:25;16.50;99.90
435;DHT22;204;48.942;9.256;2024-02-14T15:17:51;16.60;99.90
435;DHT22;204;48.942;9.256;2024-02-14T15:20:17;16.70;99.90
435;DHT22;204;48.942;9.256;2024-02-14T15:22:42;16.60;99.90
435;DHT22;204;48.942;9.256;2024-02-14T15:25:08;16.50;99.90
435;DHT22;204;48.942;9.256;2024-02-14T15:27:34;16.50;99.90
435;DHT22;204;48.942;9.256;2024-02-14T15:30:06;16.40;99.90
435;DHT22;204;48.942;9.256;2024-02-14T15:32:50;16.40;99.90
435;DHT22;204;48.942;9.256;2024-02-14T15:35:34;16.20;99.90
435;DHT22;204;48.942;9.256;2024-02-14T15:38:00;16.10;99.90
435;DHT22;204;48.942;9.256;2024-02-14T15:40:26;16.00;99.90
435;DHT22;204;48.942;9.256;2024-02-14T15:42:52;16.00;99.90
435;DHT22;204;48.942;9.256;2024-02-14T15:45:18;15.90;99.90
435;DHT22;204;48.942;9.256;2024-02-14T15:47:44;15.90;99.90
435;DHT22;204;48.942;9.256;2024-02-14T15:50:11;15.70;99.90
435;DHT22;204;48.942;9.256;2024-02-14T15:52:37;15.60;99.90
435;DHT22;204;48.942;9.256;2024-02-14T15:55:05;15.50;99.90
435;DHT22;204;48.942;9.256;2024-02-14T15:57:37;15.50;99.90
435;DHT22;204;48.942;9.256;2024-02-14T16:00:06;15.50;99.90
435;DHT22;204;48.942;9.256;2024-02-14T16:02:36;15.40;99.90
435;DHT22;204;48.942;9.256;2024-02-14T16:05:02;15.30;99.90
435;DHT22;204;48.942;9.256;2024-02-14T16:07:30;15.30;99.90
435;DHT22;204;48.942;9.256;2024-02-14T16:09:56;15.20;99.90
435;DHT22;204;48.942;9.256;2024-02-14T16:12:21;15.20;99.90
435;DHT22;204;48.942;9.256;2024-02-14T16:14:47;15.10;99.90
435;DHT22;204;48.942;9.256;2024-02-14T16:17:13;15.00;99.90
435;DHT22;204;48.942;9.256;2024-02-14T16:19:38;15.00;99.90
435;DHT22;204;48.942;9.256;2024-02-14T16:22:04;15.00;99.90
435;DHT22;204;48.942;9.256;2024-02-14T16:24:30;14.90;99.90
435;DHT22;204;48.942;9.256;2024-02-14T16:26:57;14.90;99.90
435;DHT22;204;48.942;9.256;2024-02-14T16:29:23;14.80;99.90
435;DHT22;204;48.942;9.256;2024-02-14T16:31:49;14.80;99.90
435;DHT22;204;48.942;9.256;2024-02-14T16:34:15;14.70;99.90
435;DHT22;204;48.942;9.256;2024-02-14T16:36:40;14.70;99.90
435;DHT22;204;48.942;9.256;2024-02-14T16:39:06;14.60;99.90
435;DHT22;204;48.942;9.256;2024-02-14T16:41:31;14.60;99.90
435;DHT22;204;48.942;9.256;2024-02-14T16:43:58;14.50;99.90
435;DHT22;204;48.942;9.256;2024-02-14T16:46:23;14.40;99.90
435;DHT22;204;48.942;9.256;2024-02-14T16:48:49;14.40;99.90